createdAt,value
2023-02-08T00:01:09.860Z,9.13
2023-02-08T00:03:37.671Z,8.63
2023-02-08T00:06:06.738Z,8.88
2023-02-08T00:08:34.787Z,8.45
2023-02-08T00:11:02.844Z,8.93
2023-02-08T00:13:30.638Z,9.15
2023-02-08T00:15:59.788Z,9.05
2023-02-08T00:18:27.528Z,8.38
2023-02-08T00:20:57.260Z,9.35
2023-02-08T00:23:25.406Z,9.48
2023-02-08T00:25:53.162Z,8.25
2023-02-08T00:28:21.354Z,8.65
2023-02-08T00:30:49.845Z,7.82
2023-02-08T00:33:19.022Z,7.93
2023-02-08T00:35:46.725Z,8.95
2023-02-08T00:38:14.504Z,7.93
2023-02-08T00:40:42.496Z,8.00
2023-02-08T00:43:10.356Z,8.30
2023-02-08T00:45:38.250Z,8.43
2023-02-08T00:48:06.025Z,8.55
2023-02-08T00:50:35.248Z,8.60
2023-02-08T00:53:02.942Z,7.35
2023-02-08T00:55:30.774Z,7.65
2023-02-08T00:57:58.491Z,7.47
2023-02-08T01:00:26.212Z,7.40
2023-02-08T01:02:53.956Z,7.70
2023-02-08T01:05:21.727Z,7.32
2023-02-08T01:07:50.775Z,6.78
2023-02-08T01:10:18.565Z,7.20
2023-02-08T01:12:46.276Z,8.30
2023-02-08T01:15:13.971Z,7.22
2023-02-08T01:17:41.636Z,7.22
2023-02-08T01:20:10.328Z,7.65
2023-02-08T01:22:38.076Z,7.70
2023-02-08T01:25:07.343Z,7.38
2023-02-08T01:27:35.043Z,7.18
2023-02-08T01:30:02.779Z,8.13
2023-02-08T01:32:30.470Z,7.80
2023-02-08T01:34:58.170Z,7.07
2023-02-08T01:37:26.148Z,6.88
2023-02-08T01:39:53.864Z,8.25
2023-02-08T01:42:23.360Z,7.55
2023-02-08T01:45:23.804Z,7.07
2023-02-08T01:47:55.829Z,7.45
2023-02-08T01:50:28.348Z,7.05
2023-02-08T01:52:56.198Z,7.03
2023-02-08T01:55:27.085Z,7.25
2023-02-08T01:58:00.044Z,7.60
2023-02-08T02:00:28.571Z,7.60
2023-02-08T02:02:58.041Z,7.50
2023-02-08T02:05:30.988Z,7.95
2023-02-08T02:07:59.698Z,7.95
2023-02-08T02:10:29.965Z,7.38
2023-02-08T02:13:03.866Z,8.32
2023-02-08T02:15:31.675Z,6.85
2023-02-08T02:17:59.523Z,7.20
2023-02-08T02:20:41.018Z,8.35
2023-02-08T02:23:42.896Z,7.72
2023-02-08T02:26:32.782Z,7.57
2023-02-08T02:29:43.805Z,7.25
2023-02-08T02:32:24.509Z,6.68
2023-02-08T02:34:58.600Z,7.25
2023-02-08T02:37:38.783Z,7.38
2023-02-08T02:40:16.317Z,7.00
2023-02-08T02:43:11.777Z,7.47
2023-02-08T02:45:47.958Z,6.55
2023-02-08T02:48:24.265Z,6.80
2023-02-08T02:50:57.910Z,7.25
2023-02-08T02:53:33.522Z,6.68
2023-02-08T02:56:08.227Z,7.35
2023-02-08T02:58:38.357Z,7.63
2023-02-08T03:01:06.261Z,6.90
2023-02-08T03:03:35.938Z,7.97
2023-02-08T03:06:08.139Z,7.80
2023-02-08T03:08:59.556Z,7.15
2023-02-08T03:11:32.220Z,6.93
2023-02-08T03:14:16.816Z,6.68
2023-02-08T03:17:03.432Z,7.03
2023-02-08T03:19:39.872Z,7.50
2023-02-08T03:22:14.335Z,7.40
2023-02-08T03:24:52.400Z,7.20
2023-02-08T03:27:28.597Z,6.70
2023-02-08T03:30:01.786Z,7.95
2023-02-08T03:32:37.195Z,7.32
2023-02-08T03:35:11.283Z,7.15
2023-02-08T03:37:44.762Z,7.10
2023-02-08T03:40:18.035Z,7.38
2023-02-08T03:42:50.031Z,7.35
2023-02-08T03:45:22.827Z,7.82
2023-02-08T03:47:53.432Z,7.25
2023-02-08T03:50:24.666Z,7.07
2023-02-08T03:52:54.724Z,7.00
2023-02-08T03:55:26.325Z,8.30
2023-02-08T03:57:59.381Z,7.18
2023-02-08T04:00:27.887Z,7.20
2023-02-08T04:03:00.385Z,6.80
2023-02-08T04:05:30.104Z,7.50
2023-02-08T04:07:57.812Z,6.82
2023-02-08T04:10:25.546Z,7.57
2023-02-08T04:12:53.278Z,7.50
2023-02-08T04:15:22.020Z,7.00
2023-02-08T04:17:49.797Z,7.38
2023-02-08T04:20:17.736Z,7.18
2023-02-08T04:22:46.815Z,7.95
2023-02-08T04:25:14.536Z,7.18
2023-02-08T04:27:42.440Z,6.80
2023-02-08T04:30:11.324Z,7.47
2023-02-08T04:32:39.017Z,6.28
2023-02-08T04:35:07.927Z,7.25
2023-02-08T04:37:35.648Z,6.65
2023-02-08T04:40:05.124Z,7.35
2023-02-08T04:42:32.859Z,7.45
2023-02-08T04:45:00.600Z,9.05
2023-02-08T04:47:28.264Z,7.22
2023-02-08T04:49:55.996Z,7.15
2023-02-08T04:52:23.731Z,7.10
2023-02-08T04:54:51.462Z,6.68
2023-02-08T04:57:20.533Z,7.40
2023-02-08T04:59:48.228Z,7.30
2023-02-08T05:02:15.992Z,7.53
2023-02-08T05:04:43.783Z,7.20
2023-02-08T05:07:11.521Z,7.13
2023-02-08T05:09:39.224Z,7.22
2023-02-08T05:12:07.169Z,6.80
2023-02-08T05:14:36.213Z,6.38
2023-02-08T05:17:04.026Z,6.80
2023-02-08T05:19:31.909Z,7.28
2023-02-08T05:21:59.609Z,7.10
2023-02-08T05:24:27.437Z,7.75
2023-02-08T05:26:55.135Z,6.95
2023-02-08T05:29:22.820Z,7.35
2023-02-08T05:31:52.008Z,7.60
2023-02-08T05:34:19.723Z,7.43
2023-02-08T05:36:47.491Z,6.80
2023-02-08T05:39:15.219Z,6.82
2023-02-08T05:41:42.930Z,6.57
2023-02-08T05:44:10.621Z,7.50
2023-02-08T05:46:38.609Z,6.95
2023-02-08T05:49:08.205Z,7.53
2023-02-08T05:51:36.026Z,7.00
2023-02-08T05:54:05.447Z,7.07
2023-02-08T05:56:33.379Z,6.70
2023-02-08T05:59:01.626Z,6.38
2023-02-08T06:01:29.949Z,7.85
2023-02-08T06:03:59.324Z,7.25
2023-02-08T06:06:28.601Z,7.47
2023-02-08T06:08:56.292Z,7.10
2023-02-08T06:11:24.036Z,7.30
2023-02-08T06:13:51.785Z,7.10
2023-02-08T06:16:20.132Z,7.10
2023-02-08T06:18:47.996Z,7.70
2023-02-08T06:21:15.677Z,7.57
2023-02-08T06:23:44.761Z,7.78
2023-02-08T06:26:12.471Z,6.78
2023-02-08T06:28:40.441Z,7.43
2023-02-08T06:31:08.223Z,6.65
2023-02-08T06:33:35.899Z,6.47
2023-02-08T06:36:03.715Z,7.30
2023-02-08T06:38:31.403Z,6.63
2023-02-08T06:41:00.684Z,7.00
2023-02-08T06:43:28.483Z,7.22
2023-02-08T06:45:56.218Z,6.93
2023-02-08T06:48:24.008Z,6.75
2023-02-08T06:50:53.206Z,6.65
2023-02-08T06:53:21.408Z,8.40
2023-02-08T06:55:49.310Z,7.20
2023-02-08T06:58:19.154Z,8.13
2023-02-08T07:00:46.943Z,6.30
2023-02-08T07:03:16.094Z,6.93
2023-02-08T07:05:58.664Z,7.45
2023-02-08T07:13:27.832Z,7.15
2023-02-08T07:15:55.559Z,7.80
2023-02-08T07:18:23.266Z,9.55
2023-02-08T07:20:50.973Z,8.07
2023-02-08T07:23:18.720Z,7.68
2023-02-08T07:25:46.667Z,8.00
2023-02-08T07:28:14.404Z,8.27
2023-02-08T07:30:43.554Z,7.63
2023-02-08T07:33:11.297Z,7.20
2023-02-08T07:35:38.965Z,7.07
2023-02-08T07:38:06.710Z,6.90
2023-02-08T07:40:38.095Z,7.78
2023-02-08T07:43:06.120Z,7.25
2023-02-08T07:45:33.912Z,7.53
2023-02-08T07:48:02.989Z,7.47
2023-02-08T07:50:30.735Z,7.95
2023-02-08T07:52:58.530Z,7.13
2023-02-08T07:55:27.612Z,7.38
2023-02-08T07:57:57.021Z,7.78
2023-02-08T08:00:26.949Z,8.32
2023-02-08T08:02:54.876Z,7.68
2023-02-08T08:05:23.953Z,7.35
2023-02-08T08:07:51.709Z,7.25
2023-02-08T08:10:19.610Z,7.03
2023-02-08T08:12:47.362Z,8.38
2023-02-08T08:15:15.014Z,7.75
2023-02-08T08:17:43.552Z,8.05
2023-02-08T08:20:12.416Z,7.82
2023-02-08T08:22:41.612Z,8.60
2023-02-08T08:25:09.703Z,8.40
2023-02-08T08:27:38.095Z,8.85
2023-02-08T08:30:07.789Z,7.00
2023-02-08T08:32:35.512Z,8.10
2023-02-08T08:35:03.240Z,8.00
2023-02-08T08:37:30.972Z,7.18
2023-02-08T08:40:00.013Z,8.27
2023-02-08T08:42:27.834Z,7.88
2023-02-08T08:44:56.510Z,7.85
2023-02-08T08:47:24.222Z,7.50
2023-02-08T08:49:52.023Z,8.52
2023-02-08T08:52:19.850Z,7.63
2023-02-08T08:54:47.699Z,7.82
2023-02-08T08:57:17.685Z,8.07
2023-02-08T08:59:45.430Z,7.65
2023-02-08T09:02:14.011Z,7.68
2023-02-08T09:04:42.089Z,7.95
2023-02-08T09:07:11.049Z,6.75
2023-02-08T09:09:39.211Z,7.45
2023-02-08T09:12:07.183Z,7.80
2023-02-08T09:14:36.242Z,7.28
2023-02-08T09:17:03.964Z,7.65
2023-02-08T09:19:31.659Z,7.00
2023-02-08T09:22:00.629Z,7.57
2023-02-08T09:24:28.523Z,7.32
2023-02-08T09:26:56.279Z,7.22
2023-02-08T09:29:24.036Z,6.75
2023-02-08T09:31:53.255Z,7.43
2023-02-08T09:34:21.049Z,7.07
2023-02-08T09:36:48.904Z,7.13
2023-02-08T09:39:18.697Z,7.78
2023-02-08T09:42:13.858Z,7.60
2023-02-08T09:44:53.922Z,6.85
2023-02-08T09:47:29.944Z,6.63
2023-02-08T09:50:03.163Z,6.87
2023-02-08T09:52:38.197Z,6.50
2023-02-08T09:55:21.481Z,6.30
2023-02-08T09:57:51.702Z,6.70
2023-02-08T10:00:25.998Z,6.50
2023-02-08T10:02:59.147Z,7.30
2023-02-08T10:05:29.394Z,6.75
2023-02-08T10:07:58.512Z,6.63
2023-02-08T10:10:39.000Z,6.75
2023-02-08T10:13:23.970Z,6.57
2023-02-08T10:16:06.406Z,5.93
2023-02-08T10:18:45.734Z,6.45
2023-02-08T10:21:26.933Z,6.22
2023-02-08T10:24:16.265Z,6.10
2023-02-08T10:26:49.037Z,6.40
2023-02-08T10:29:32.926Z,6.35
2023-02-08T10:32:25.104Z,5.82
2023-02-08T10:34:57.315Z,5.38
2023-02-08T10:37:30.650Z,6.47
2023-02-08T10:40:01.706Z,6.40
2023-02-08T10:42:31.354Z,6.85
2023-02-08T10:45:22.600Z,6.63
2023-02-08T10:47:56.526Z,6.30
2023-02-08T10:50:34.379Z,5.95
2023-02-08T10:53:02.196Z,6.50
2023-02-08T10:55:32.555Z,6.07
2023-02-08T10:58:03.476Z,6.13
2023-02-08T11:00:34.480Z,6.35
2023-02-08T11:03:13.609Z,5.90
2023-02-08T11:05:43.154Z,6.90
2023-02-08T11:08:15.504Z,6.40
2023-02-08T11:10:46.561Z,6.35
2023-02-08T11:13:21.485Z,6.03
2023-02-08T11:15:52.797Z,5.90
2023-02-08T11:18:23.908Z,5.68
2023-02-08T11:20:56.276Z,6.05
2023-02-08T11:23:26.857Z,6.13
2023-02-08T11:25:56.574Z,6.38
2023-02-08T11:28:28.108Z,6.88
2023-02-08T11:30:57.884Z,5.07
2023-02-08T11:33:27.398Z,5.43
2023-02-08T11:36:06.130Z,6.15
2023-02-08T11:38:36.502Z,5.40
2023-02-08T11:41:06.642Z,5.35
2023-02-08T11:43:36.248Z,6.28
2023-02-08T11:46:06.020Z,5.90
2023-02-08T11:48:41.805Z,5.38
2023-02-08T11:51:13.857Z,5.93
2023-02-08T11:53:47.500Z,5.10
2023-02-08T11:56:21.006Z,5.25
2023-02-08T11:59:20.053Z,5.85
2023-02-08T12:01:47.946Z,5.35
2023-02-08T12:04:18.548Z,5.43
2023-02-08T12:07:21.172Z,5.60
2023-02-08T12:10:18.021Z,5.10
2023-02-08T12:13:00.475Z,5.57
2023-02-08T12:15:48.090Z,5.45
2023-02-08T12:18:30.115Z,5.93
2023-02-08T12:21:05.656Z,4.97
2023-02-08T12:24:04.179Z,5.47
2023-02-08T12:27:01.463Z,5.90
2023-02-08T12:29:52.552Z,4.47
2023-02-08T12:32:34.790Z,5.43
2023-02-08T12:36:02.871Z,5.05
2023-02-08T12:39:26.620Z,5.10
2023-02-08T12:42:30.143Z,5.00
2023-02-08T12:45:15.278Z,4.93
2023-02-08T12:48:04.487Z,4.95
2023-02-08T12:50:39.708Z,4.75
2023-02-08T12:53:25.663Z,5.00
2023-02-08T12:55:56.333Z,4.85
2023-02-08T12:58:30.369Z,4.82
2023-02-08T13:01:02.563Z,4.50
2023-02-08T13:03:42.874Z,4.85
2023-02-08T13:06:17.627Z,4.50
2023-02-08T13:08:51.588Z,4.18
2023-02-08T13:11:26.759Z,4.85
2023-02-08T13:13:59.825Z,4.45
2023-02-08T13:16:34.055Z,4.65
2023-02-08T13:19:19.580Z,4.10
2023-02-08T13:21:47.814Z,4.47
2023-02-08T13:24:22.448Z,4.45
2023-02-08T13:26:50.157Z,3.90
2023-02-08T13:29:21.514Z,3.67
2023-02-08T13:31:52.736Z,3.35
2023-02-08T13:34:29.035Z,3.80
2023-02-08T13:37:00.570Z,4.00
2023-02-08T13:39:35.538Z,3.50
2023-02-08T13:42:05.346Z,3.90
2023-02-08T13:44:37.031Z,3.97
2023-02-08T13:47:06.351Z,3.63
2023-02-08T13:49:53.522Z,3.95
2023-02-08T13:52:53.171Z,3.67
2023-02-08T13:55:53.432Z,3.25
2023-02-08T13:59:05.908Z,3.15
2023-02-08T14:01:37.122Z,3.22
2023-02-08T14:04:34.772Z,3.45
2023-02-08T14:07:13.589Z,3.08
2023-02-08T14:09:49.937Z,3.08
2023-02-08T14:12:25.045Z,3.45
2023-02-08T14:15:28.957Z,3.00
2023-02-08T14:17:59.932Z,3.03
2023-02-08T14:20:32.460Z,2.67
2023-02-08T14:23:03.354Z,2.83
2023-02-08T14:25:43.000Z,2.92
2023-02-08T14:28:26.791Z,2.88
2023-02-08T14:30:57.911Z,2.95
2023-02-08T14:33:30.456Z,2.80
2023-02-08T14:36:00.760Z,2.95
2023-02-08T14:38:52.082Z,3.00
2023-02-08T14:41:45.759Z,3.05
2023-02-08T14:44:56.196Z,3.03
2023-02-08T14:47:53.296Z,2.85
2023-02-08T14:50:27.141Z,3.27
2023-02-08T14:53:02.429Z,3.30
2023-02-08T14:55:35.131Z,3.15
2023-02-08T14:58:09.137Z,2.85
2023-02-08T15:00:40.010Z,3.13
2023-02-08T15:03:16.113Z,2.60
2023-02-08T15:05:57.674Z,2.73
2023-02-08T15:08:26.097Z,3.00
2023-02-08T15:10:53.966Z,2.40
2023-02-08T15:13:24.836Z,2.83
2023-02-08T15:15:55.757Z,2.55
2023-02-08T15:18:26.632Z,2.88
2023-02-08T15:21:04.425Z,2.63
2023-02-08T15:23:32.696Z,2.53
2023-02-08T15:26:02.832Z,2.80
2023-02-08T15:28:32.600Z,3.08
2023-02-08T15:31:03.399Z,2.58
2023-02-08T15:33:32.402Z,3.45
2023-02-08T15:36:06.286Z,3.22
2023-02-08T15:38:38.495Z,2.95
2023-02-08T15:41:08.926Z,2.60
2023-02-08T15:43:37.672Z,2.70
2023-02-08T15:46:08.110Z,3.35
2023-02-08T15:48:38.070Z,2.25
2023-02-08T15:51:08.298Z,2.90
2023-02-08T15:53:37.038Z,2.67
2023-02-08T15:56:07.355Z,2.33
2023-02-08T15:58:39.525Z,2.95
2023-02-08T16:01:09.709Z,2.90
2023-02-08T16:03:38.785Z,2.60
2023-02-08T16:06:10.783Z,3.58
2023-02-08T16:08:43.273Z,4.35
2023-02-08T16:11:14.695Z,3.47
2023-02-08T16:13:48.897Z,3.90
2023-02-08T16:16:20.191Z,3.28
2023-02-08T16:18:50.201Z,3.25
2023-02-08T16:21:30.002Z,3.60
2023-02-08T16:23:59.725Z,3.50
2023-02-08T16:26:29.694Z,3.50
2023-02-08T16:29:00.368Z,3.15
2023-02-08T16:31:30.836Z,3.60
2023-02-08T16:34:01.566Z,3.75
2023-02-08T16:36:34.972Z,3.65
2023-02-08T16:39:36.878Z,3.83
2023-02-08T16:42:16.234Z,3.28
2023-02-08T16:45:03.423Z,3.85
2023-02-08T16:47:37.434Z,3.60
2023-02-08T16:50:05.497Z,5.10
2023-02-08T16:52:35.515Z,11.60
2023-02-08T16:55:03.586Z,15.40
2023-02-08T16:57:40.844Z,17.83
2023-02-08T17:00:16.385Z,16.92
2023-02-08T17:02:44.239Z,17.10
2023-02-08T17:05:12.056Z,13.48
2023-02-08T17:07:41.206Z,11.70
2023-02-08T17:10:15.301Z,12.20
2023-02-08T17:12:43.101Z,11.55
2023-02-08T17:15:11.101Z,11.45
2023-02-08T17:17:39.041Z,10.48
2023-02-08T17:20:17.336Z,9.57
2023-02-08T17:22:46.829Z,9.50
2023-02-08T17:25:19.013Z,8.90
2023-02-08T17:27:53.557Z,8.48
2023-02-08T17:30:24.878Z,8.18
2023-02-08T17:32:53.599Z,7.95
2023-02-08T17:35:22.017Z,7.15
2023-02-08T17:37:53.102Z,6.57
2023-02-08T17:40:22.353Z,6.80
2023-02-08T17:42:50.245Z,6.68
2023-02-08T17:45:18.120Z,7.38
2023-02-08T17:47:45.886Z,5.80
2023-02-08T17:50:16.116Z,5.72
2023-02-08T17:52:43.953Z,6.53
2023-02-08T17:55:15.139Z,5.30
2023-02-08T17:57:44.374Z,5.90
2023-02-08T18:00:15.182Z,6.22
2023-02-08T18:02:47.864Z,5.90
2023-02-08T18:05:16.045Z,6.18
2023-02-08T18:07:43.979Z,5.20
2023-02-08T18:10:15.245Z,4.95
2023-02-08T18:12:43.857Z,5.07
2023-02-08T18:15:13.770Z,4.85
2023-02-08T18:17:42.007Z,5.18
2023-02-08T18:20:11.757Z,5.18
2023-02-08T18:22:39.634Z,4.47
2023-02-08T18:25:08.906Z,4.47
2023-02-08T18:27:38.054Z,5.43
2023-02-08T18:30:06.823Z,4.55
2023-02-08T18:32:34.665Z,4.68
2023-02-08T18:35:04.281Z,4.97
2023-02-08T18:37:33.178Z,4.35
2023-02-08T18:40:00.972Z,5.35
2023-02-08T18:42:28.940Z,5.25
2023-02-08T18:44:58.225Z,5.28
2023-02-08T18:47:25.938Z,5.03
2023-02-08T18:49:55.262Z,4.95
2023-02-08T18:52:24.664Z,5.25
2023-02-08T18:54:52.412Z,5.13
2023-02-08T18:57:20.430Z,5.00
2023-02-08T18:59:48.241Z,6.15
2023-02-08T19:02:21.821Z,4.97
2023-02-08T19:04:50.071Z,5.20
2023-02-08T19:07:21.007Z,6.20
2023-02-08T19:09:49.518Z,5.20
2023-02-08T19:12:18.969Z,5.07
2023-02-08T19:14:50.560Z,5.25
2023-02-08T19:17:19.911Z,5.45
2023-02-08T19:19:48.112Z,6.28
2023-02-08T19:22:15.857Z,5.30
2023-02-08T19:24:43.653Z,5.65
2023-02-08T19:27:11.370Z,5.57
2023-02-08T19:29:39.086Z,5.30
2023-02-08T19:32:08.007Z,6.68
2023-02-08T19:34:37.173Z,5.47
2023-02-08T19:37:04.990Z,5.43
2023-02-08T19:39:32.828Z,5.20
2023-02-08T19:42:00.592Z,5.88
2023-02-08T19:44:30.446Z,5.55
2023-02-08T19:46:59.113Z,5.93
2023-02-08T19:49:28.411Z,6.35
2023-02-08T19:51:57.874Z,7.07
2023-02-08T19:54:26.060Z,6.13
2023-02-08T19:56:54.969Z,6.25
2023-02-08T19:59:24.945Z,5.88
2023-02-08T20:01:53.311Z,5.75
2023-02-08T20:04:21.085Z,5.90
2023-02-08T20:06:52.287Z,6.78
2023-02-08T20:09:21.680Z,6.10
2023-02-08T20:11:57.333Z,6.35
2023-02-08T20:14:25.972Z,5.88
2023-02-08T20:16:53.935Z,5.85
2023-02-08T20:19:21.902Z,6.10
2023-02-08T20:21:49.842Z,6.60
2023-02-08T20:24:17.927Z,7.32
2023-02-08T20:26:48.392Z,6.47
2023-02-08T20:29:16.902Z,6.13
2023-02-08T20:31:47.392Z,5.80
2023-02-08T20:34:18.640Z,6.45
2023-02-08T20:37:05.331Z,5.53
2023-02-08T20:39:35.087Z,6.63
2023-02-08T20:42:04.613Z,6.50
2023-02-08T20:44:32.519Z,6.45
2023-02-08T20:47:00.489Z,6.88
2023-02-08T20:49:29.378Z,6.43
2023-02-08T20:51:57.327Z,6.95
2023-02-08T20:54:25.634Z,6.40
2023-02-08T20:56:55.136Z,7.10
2023-02-08T20:59:24.339Z,6.40
2023-02-08T21:01:52.090Z,6.15
2023-02-08T21:04:23.352Z,7.00
2023-02-08T21:06:52.307Z,7.10
2023-02-08T21:09:21.177Z,7.55
2023-02-08T21:11:49.564Z,6.72
2023-02-08T21:14:20.684Z,6.38
2023-02-08T21:16:52.870Z,6.00
2023-02-08T21:19:21.465Z,6.18
2023-02-08T21:21:51.697Z,6.45
2023-02-08T21:24:19.583Z,7.40
2023-02-08T21:26:47.357Z,6.38
2023-02-08T21:29:15.096Z,6.32
2023-02-08T21:31:42.928Z,6.65
2023-02-08T21:34:13.494Z,6.57
2023-02-08T21:36:41.247Z,7.22
2023-02-08T21:39:08.979Z,5.78
2023-02-08T21:41:36.746Z,6.65
2023-02-08T21:44:08.117Z,6.50
2023-02-08T21:46:36.216Z,6.72
2023-02-08T21:49:21.483Z,6.60
2023-02-08T21:52:08.189Z,6.95
2023-02-08T21:54:42.665Z,5.85
2023-02-08T21:57:12.682Z,5.72
2023-02-08T21:59:40.672Z,6.18
2023-02-08T22:02:12.170Z,6.32
2023-02-08T22:04:41.960Z,5.90
2023-02-08T22:07:11.076Z,6.00
2023-02-08T22:09:41.503Z,6.13
2023-02-08T22:12:14.450Z,5.85
2023-02-08T22:14:42.358Z,6.45
2023-02-08T22:17:10.148Z,5.55
2023-02-08T22:19:39.908Z,6.30
2023-02-08T22:22:08.257Z,6.47
2023-02-08T22:24:37.733Z,6.45
2023-02-08T22:27:05.492Z,6.03
2023-02-08T22:29:33.209Z,6.40
2023-02-08T22:32:01.240Z,7.35
2023-02-08T22:34:29.191Z,6.63
2023-02-08T22:36:56.879Z,6.50
2023-02-08T22:39:24.646Z,6.32
2023-02-08T22:41:53.742Z,6.85
2023-02-08T22:44:21.418Z,6.75
2023-02-08T22:46:49.242Z,7.22
2023-02-08T22:49:17.009Z,6.28
2023-02-08T22:51:44.772Z,7.00
2023-02-08T22:54:12.495Z,6.78
2023-02-08T22:56:40.292Z,6.68
2023-02-08T22:59:09.526Z,6.57
2023-02-08T23:01:38.302Z,6.72
2023-02-08T23:04:07.015Z,6.28
2023-02-08T23:06:35.603Z,7.05
2023-02-08T23:09:03.916Z,7.00
2023-02-08T23:11:31.685Z,6.13
2023-02-08T23:13:59.451Z,6.22
2023-02-08T23:16:28.544Z,6.10
2023-02-08T23:18:56.289Z,6.40
2023-02-08T23:21:24.078Z,7.20
2023-02-08T23:23:51.779Z,6.80
2023-02-08T23:26:21.451Z,6.53
2023-02-08T23:28:51.622Z,7.28
2023-02-08T23:31:20.130Z,6.63
2023-02-08T23:33:50.201Z,6.57
2023-02-08T23:36:20.879Z,6.88
2023-02-08T23:38:48.691Z,7.07
2023-02-08T23:41:18.830Z,7.00
2023-02-08T23:43:46.746Z,6.65
2023-02-08T23:46:17.026Z,7.05
2023-02-08T23:48:47.538Z,6.68
2023-02-08T23:51:18.575Z,6.93
2023-02-08T23:53:46.752Z,6.55
2023-02-08T23:56:17.944Z,6.72
2023-02-08T23:58:47.528Z,6.68
